Aérodrome :
LOGIN :

S'inscrire | Disclaimer

   EN    FR    IT 

 










Légende :    VFR   VFR Marginal   IFR   IFR Intensif   IFR Très Intensif
Visi : 
Plafond : 
>= 8 km
>= 3000ft
5 à 8 km
1000 à 3000 ft
1500m à 5 km
500 à 1000 ft
800 à 1500m
200 à 500 ft
< 800m
< 200 ft
Symboles :   Orages  Brouillard  Fortes neiges  Fortes précipitations  Vent > 20 kt
SIGMETs :   Divers  Orages  Givrage  Turbulence  Onde Orograph.  Cendres Volcan.







- Altitude de l'aérodrome : 778 ft
- Code IATA : BRQ


LKTB - Brno-Turany

DERNIER METAR :
  • 241830Z 30012KT CAVOK 10/02 Q1027 NOSIG

METARs EXPIRÉS :
  • 241800Z 30012KT 9999 FEW046 10/02 Q1027 NOSIG
  • 241730Z 28008KT 9999 FEW044TCU FEW046 10/02 Q1026 NOSIG
  • 241700Z 30013KT 9999 FEW044TCU FEW046 11/03 Q1026 NOSIG
  • 241630Z 32016KT 9999 FEW044TCU FEW046 11/02 Q1026 NOSIG
  • 241600Z 32012KT 9999 FEW044TCU SCT046 12/03 Q1025 NOSIG

TAF TAF LKTB
Valide du 24 à 18h jusqu'au 26 à 00h UTC


241700Z 2418/2600 30013KT 9999 SCT045
PROB40
TEMPO 2418/2421 33018G30KT 8000 -SHRA SCT025TCU
TEMPO 2509/2516 9999 BKN040
BECMG 2518/2520 VRB02KT CAVOK
Pas de NOTAMs connus pour ce terrain.



MET'MAP, la Météo Aéronautique d'un coup d'oeil ! - Copyright ORBIFLY Décembre 2007 - Disclaimer

ORBIFLY MET'MAP TEAM :

Programmation & Développement : Alexandra Zaïnal
Conception & Développement : Baudouin d'Aumeries
Co-Programmation & Développement : Marc-Olivier Méhu
Soutien technique & logistique : Manuel Goepfert

Contact : metmap@orbifly.com




SOURCES & CREDITS :

   NOAA